Aérodrome :
LOGIN :

S'inscrire | Disclaimer

   EN    FR    IT 

 










Légende :    VFR   VFR Marginal   IFR   IFR Intensif   IFR Très Intensif
Visi : 
Plafond : 
>= 8 km
>= 3000ft
5 à 8 km
1000 à 3000 ft
1500m à 5 km
500 à 1000 ft
800 à 1500m
200 à 500 ft
< 800m
< 200 ft
Symboles :   Orages  Brouillard  Fortes neiges  Fortes précipitations  Vent > 20 kt
SIGMETs :   Divers  Orages  Givrage  Turbulence  Onde Orograph.  Cendres Volcan.






- Altitude de l'aérodrome : 1017 ft


LFSL - Brive Souillac

DERNIER METAR :
  • 220030Z AUTO 00000KT CAVOK 01/M00 Q1031

METARs EXPIRÉS :
  • 212300Z AUTO VRB01KT CAVOK 02/01 Q1031
  • 212230Z AUTO 00000KT CAVOK 02/01 Q1031
  • 212200Z AUTO 30002KT CAVOK 03/02 Q1031

TAF TAF LFSL
Valide du 21 à 18h jusqu'au 22 à 03h UTC


211700Z 2118/2203 VRB02KT CAVOK



MET'MAP, la Météo Aéronautique d'un coup d'oeil ! - Copyright ORBIFLY Décembre 2007 - Disclaimer

ORBIFLY MET'MAP TEAM :

Programmation & Développement : Alexandra Zaïnal
Sur une idée originale de : Baudouin d'Aumeries
Assistance à la programmation : Marc-Olivier Méhu
Soutien technique & logistique : Manuel Goepfert

Contact : metmap@orbifly.com




SOURCES & CREDITS :

   NOAA